Time;durP1;ratioP1;P1;durP2;ratioP2;P2;SDS_P1;SDS_P2;PMS_P1;PMS_P2;Temp;Humidity;BMP_temperature;BMP_pressure;BME280_temperature;BME280_humidity;BME280_pressure;Samples;Min_cycle;Max_cycle;Signal;HPM_P1;HPM_P2
2021/12/20 00:00:32;;;;;;;7.20;3.00;;;;;;;3.39;67.30;98695.69;212548;1322;138527;-59
2021/12/20 00:05:44;;;;;;;9.30;3.30;;;;;;;3.39;67.22;98690.27;212184;1329;138649;-59
2021/12/20 00:10:47;;;;;;;7.50;3.50;;;;;;;3.36;67.18;98694.23;212100;1327;139993;-60
2021/12/20 00:15:51;;;;;;;6.90;3.40;;;;;;;3.38;67.35;98702.05;212206;1322;138660;-59
2021/12/20 00:20:54;;;;;;;8.60;3.60;;;;;;;3.35;67.29;98706.04;212378;1322;138537;-59
2021/12/20 00:25:57;;;;;;;8.80;3.80;;;;;;;3.29;67.34;98708.16;211933;1331;138336;-59
2021/12/20 00:31:00;;;;;;;8.90;3.40;;;;;;;3.28;67.44;98722.06;213035;1320;139754;-58
2021/12/20 00:36:07;;;;;;;9.30;3.90;;;;;;;3.25;67.31;98721.32;212599;1322;139840;-59
2021/12/20 00:41:10;;;;;;;10.30;4.30;;;;;;;3.19;67.41;98725.74;212658;1326;139909;-58
2021/12/20 00:46:13;;;;;;;9.30;4.00;;;;;;;3.19;67.33;98726.09;213024;1313;140304;-59
2021/12/20 00:51:16;;;;;;;7.80;3.80;;;;;;;3.20;67.66;98725.17;212251;1326;138871;-58
2021/12/20 00:56:19;;;;;;;9.80;3.90;;;;;;;3.20;67.61;98723.59;212419;1327;140904;-58
2021/12/20 01:01:22;;;;;;;8.30;4.00;;;;;;;3.17;67.48;98729.30;212241;1325;139470;-57
2021/12/20 01:06:25;;;;;;;10.90;4.20;;;;;;;3.15;67.52;98728.34;212832;1322;138453;-57
2021/12/20 01:11:29;;;;;;;8.80;3.40;;;;;;;3.09;67.29;98718.02;212401;1322;138712;-58
2021/12/20 01:16:33;;;;;;;7.60;3.80;;;;;;;3.03;67.31;98720.19;212199;1322;138356;-59
2021/12/20 01:21:36;;;;;;;8.00;3.90;;;;;;;3.04;67.42;98724.34;212006;1328;139925;-59
2021/12/20 01:26:39;;;;;;;8.90;3.60;;;;;;;3.05;67.43;98722.72;212243;1328;139307;-57
2021/12/20 01:31:42;;;;;;;10.50;4.10;;;;;;;3.05;67.38;98726.23;213000;1322;138671;-57
2021/12/20 01:36:45;;;;;;;8.50;3.70;;;;;;;3.01;67.48;98729.00;212894;1322;139799;-59
2021/12/20 01:41:52;;;;;;;7.60;4.00;;;;;;;2.96;67.48;98728.16;212873;1323;139583;-59
2021/12/20 01:46:55;;;;;;;10.00;3.50;;;;;;;2.93;67.72;98729.13;212177;1328;140071;-59
2021/12/20 01:57:03;;;;;;;6.80;3.70;;;;;;;2.90;67.59;98727.50;212380;1318;139907;-58
2021/12/20 02:02:07;;;;;;;8.40;3.20;;;;;;;2.95;67.70;98721.36;212997;1322;139032;-59
2021/12/20 02:07:20;;;;;;;8.60;3.30;;;;;;;2.97;67.84;98730.94;212824;1322;139293;-58
2021/12/20 02:12:24;;;;;;;9.70;4.20;;;;;;;2.96;67.73;98739.35;212685;1322;138655;-58
2021/12/20 02:17:27;;;;;;;9.20;4.40;;;;;;;2.97;67.79;98734.07;212709;1322;138507;-58
2021/12/20 02:22:30;;;;;;;11.60;4.90;;;;;;;2.95;67.69;98735.55;212234;1320;138575;-59
2021/12/20 02:27:33;;;;;;;12.00;4.90;;;;;;;2.91;67.73;98737.11;212226;1328;138773;-60
2021/12/20 02:38:08;;;;;;;10.10;5.30;;;;;;;2.89;67.93;98731.02;212396;1325;143007;-60
2021/12/20 02:43:15;;;;;;;11.90;5.50;;;;;;;2.87;68.08;98734.42;212925;1326;139122;-58
2021/12/20 02:48:18;;;;;;;15.40;6.00;;;;;;;2.89;68.23;98739.98;212761;1321;139127;-58
2021/12/20 02:53:22;;;;;;;8.60;4.90;;;;;;;2.88;68.14;98738.06;212435;1322;139620;-58
2021/12/20 02:58:25;;;;;;;10.90;5.90;;;;;;;2.88;68.17;98743.15;212143;1324;138520;-60
2021/12/20 03:03:28;;;;;;;13.40;5.60;;;;;;;2.90;68.12;98745.73;213036;1323;138149;-56
2021/12/20 03:08:31;;;;;;;12.70;5.50;;;;;;;2.89;68.17;98744.16;212502;1322;138625;-60
2021/12/20 03:13:34;;;;;;;11.60;4.90;;;;;;;2.94;68.30;98748.01;212749;1321;141891;-61
2021/12/20 03:18:37;;;;;;;11.40;5.10;;;;;;;3.02;68.21;98740.02;211912;1324;139117;-59
2021/12/20 03:23:40;;;;;;;9.00;5.10;;;;;;;3.07;68.30;98741.93;212050;1327;139082;-58
2021/12/20 03:28:43;;;;;;;11.70;5.70;;;;;;;3.09;68.02;98742.40;212314;1325;138543;-61
2021/12/20 03:33:46;;;;;;;10.30;5.00;;;;;;;3.08;68.16;98741.73;212001;1322;138790;-58
2021/12/20 03:38:49;;;;;;;13.30;5.80;;;;;;;3.04;68.15;98741.00;212310;1324;139663;-61
2021/12/20 03:43:53;;;;;;;9.60;5.00;;;;;;;2.99;68.03;98736.61;212268;1322;139284;-58
2021/12/20 03:48:56;;;;;;;9.30;3.70;;;;;;;2.96;68.02;98728.69;213068;1322;138675;-59
2021/12/20 03:54:00;;;;;;;10.00;4.40;;;;;;;2.96;67.90;98719.73;212118;1332;140257;-58
2021/12/20 03:59:03;;;;;;;10.10;4.50;;;;;;;2.99;67.95;98720.52;212678;1322;138662;-57
2021/12/20 04:04:07;;;;;;;10.60;4.60;;;;;;;2.89;67.81;98727.52;213251;1322;140107;-59
2021/12/20 04:09:10;;;;;;;6.70;3.90;;;;;;;2.80;68.02;98722.23;212469;1322;138822;-57
2021/12/20 04:14:13;;;;;;;8.30;4.20;;;;;;;2.72;67.98;98718.86;212790;1322;138643;-57
2021/12/20 04:19:16;;;;;;;9.20;4.10;;;;;;;2.68;68.08;98725.11;212565;1326;138585;-58
2021/12/20 04:24:19;;;;;;;7.20;2.90;;;;;;;2.74;68.25;98723.69;212761;1325;138984;-57
2021/12/20 04:29:22;;;;;;;8.10;3.60;;;;;;;2.80;68.17;98719.63;212389;1325;140005;-56
2021/12/20 04:34:25;;;;;;;9.90;3.50;;;;;;;2.81;67.95;98724.84;212286;1325;138703;-57
2021/12/20 04:39:31;;;;;;;12.70;7.10;;;;;;;2.86;68.30;98728.89;212585;1322;138518;-57
2021/12/20 04:44:35;;;;;;;8.00;4.00;;;;;;;3.01;68.13;98733.40;212261;1325;140222;-57
2021/12/20 04:49:38;;;;;;;5.90;3.40;;;;;;;3.01;67.87;98743.73;212568;1322;138150;-58
2021/12/20 04:54:41;;;;;;;12.10;6.70;;;;;;;3.00;67.95;98751.30;212138;1325;139579;-58
2021/12/20 04:59:44;;;;;;;5.70;3.30;;;;;;;3.03;67.75;98753.12;212846;1327;138955;-59
2021/12/20 05:04:47;;;;;;;5.50;2.70;;;;;;;3.03;67.63;98751.20;211909;1325;253343;-59
2021/12/20 05:09:51;;;;;;;7.20;3.30;;;;;;;3.04;67.46;98743.80;212365;1326;138711;-59
2021/12/20 05:14:55;;;;;;;8.50;2.90;;;;;;;2.99;67.41;98742.60;212469;1328;139029;-59
2021/12/20 05:19:57;;;;;;;39.70;22.30;;;;;;;2.91;67.36;98749.72;212081;1322;140044;-60
2021/12/20 05:25:01;;;;;;;7.10;3.80;;;;;;;2.96;67.79;98749.16;212757;1329;138195;-59
2021/12/20 05:30:05;;;;;;;4.90;3.30;;;;;;;2.98;67.60;98751.91;212679;1326;138578;-59
2021/12/20 05:35:11;;;;;;;8.30;3.10;;;;;;;2.90;67.51;98753.41;213017;1322;138425;-60
2021/12/20 05:40:16;;;;;;;5.10;2.70;;;;;;;2.80;67.55;98750.80;212387;1324;139107;-59
2021/12/20 05:45:19;;;;;;;7.20;2.70;;;;;;;2.76;67.87;98750.07;212221;1324;139481;-59
2021/12/20 05:50:24;;;;;;;7.90;3.20;;;;;;;2.73;67.79;98751.41;212686;1322;138996;-60
2021/12/20 05:55:27;;;;;;;6.90;3.30;;;;;;;2.72;67.91;98760.02;212257;1326;138517;-61
2021/12/20 06:00:30;;;;;;;7.40;3.10;;;;;;;2.67;68.11;98774.55;212128;1326;138555;-58
2021/12/20 06:05:33;;;;;;;5.70;2.90;;;;;;;2.62;67.95;98782.25;212149;1324;138775;-57
2021/12/20 06:10:37;;;;;;;7.00;3.50;;;;;;;2.56;68.16;98781.20;212236;1328;233118;-59
2021/12/20 06:15:40;;;;;;;7.10;2.80;;;;;;;2.59;68.25;98791.27;212680;1325;138826;-61
2021/12/20 06:20:44;;;;;;;5.10;2.30;;;;;;;2.63;68.13;98795.36;212016;1329;139536;-57
2021/12/20 06:25:47;;;;;;;6.60;3.00;;;;;;;2.61;68.19;98802.59;212245;1328;139592;-56
2021/12/20 06:30:51;;;;;;;7.00;2.70;;;;;;;2.63;68.24;98816.70;212293;1323;138638;-60
2021/12/20 06:35:54;;;;;;;7.50;2.80;;;;;;;2.63;68.25;98817.95;212016;1328;138269;-59
2021/12/20 06:40:57;;;;;;;6.70;2.90;;;;;;;2.62;68.55;98824.48;212139;1321;138593;-58
2021/12/20 06:46:00;;;;;;;6.40;3.10;;;;;;;2.62;68.47;98833.40;211884;1330;139486;-61
2021/12/20 06:51:03;;;;;;;7.60;3.00;;;;;;;2.67;68.36;98835.66;213286;1326;139681;-60
2021/12/20 06:56:06;;;;;;;6.00;2.90;;;;;;;2.75;68.39;98835.39;212872;1322;139069;-59
2021/12/20 07:01:10;;;;;;;7.80;3.20;;;;;;;2.82;68.49;98842.02;212288;1322;138921;-59
2021/12/20 07:06:13;;;;;;;6.60;2.90;;;;;;;2.82;68.31;98847.05;212567;1321;139625;-60
2021/12/20 07:11:16;;;;;;;6.90;3.40;;;;;;;2.82;68.45;98848.30;212989;1325;230332;-61
2021/12/20 07:16:19;;;;;;;6.20;3.10;;;;;;;2.77;68.48;98851.61;213138;1325;138876;-58
2021/12/20 07:21:22;;;;;;;5.90;3.30;;;;;;;2.75;68.42;98856.26;212472;1324;139187;-59
2021/12/20 07:26:25;;;;;;;8.50;3.10;;;;;;;2.79;68.71;98859.61;212326;1322;139758;-59
2021/12/20 07:31:28;;;;;;;5.30;3.30;;;;;;;2.88;68.69;98865.11;212194;1328;139096;-58
2021/12/20 07:36:31;;;;;;;9.20;3.20;;;;;;;2.96;68.52;98868.35;212328;1325;138596;-60
2021/12/20 07:41:35;;;;;;;6.00;3.50;;;;;;;2.97;68.58;98864.27;212539;1329;138405;-58
2021/12/20 07:46:38;;;;;;;5.20;2.90;;;;;;;2.96;68.41;98860.98;211998;1330;138855;-59
2021/12/20 07:51:42;;;;;;;4.90;2.40;;;;;;;2.94;68.19;98854.90;212445;1329;139086;-58
2021/12/20 07:56:45;;;;;;;6.40;3.00;;;;;;;2.90;68.20;98858.19;213156;1323;138423;-59
2021/12/20 08:01:50;;;;;;;4.70;2.40;;;;;;;2.89;68.20;98860.66;212466;1324;139462;-58
2021/12/20 08:06:53;;;;;;;7.60;2.60;;;;;;;2.89;68.03;98876.98;211852;1325;139296;-60
2021/12/20 08:11:56;;;;;;;4.40;2.70;;;;;;;2.91;68.20;98883.23;212282;1329;138591;-60
2021/12/20 08:16:59;;;;;;;5.90;2.70;;;;;;;2.92;68.14;98888.09;212958;1326;138515;-59
2021/12/20 08:22:03;;;;;;;6.10;3.50;;;;;;;2.93;68.18;98896.83;212523;1322;138116;-59
2021/12/20 08:27:06;;;;;;;7.20;3.00;;;;;;;2.94;68.18;98900.29;212863;1324;138822;-59
2021/12/20 08:32:09;;;;;;;4.80;2.50;;;;;;;2.92;68.09;98903.86;212414;1324;139788;-59
2021/12/20 08:37:12;;;;;;;4.00;2.70;;;;;;;2.89;68.04;98909.56;212530;1328;140591;-58
2021/12/20 08:42:15;;;;;;;6.00;2.90;;;;;;;2.87;68.08;98904.20;212187;1328;138497;-57
2021/12/20 08:47:20;;;;;;;4.60;2.80;;;;;;;2.89;68.25;98902.03;212652;1324;138366;-57
2021/12/20 08:52:23;;;;;;;4.80;2.80;;;;;;;2.86;68.19;98904.59;212273;1321;138405;-58
2021/12/20 08:57:26;;;;;;;5.50;3.00;;;;;;;2.86;68.17;98907.91;212136;1328;138537;-60
2021/12/20 09:02:29;;;;;;;6.20;3.30;;;;;;;2.85;68.24;98908.82;212032;1329;139112;-58
2021/12/20 09:07:33;;;;;;;5.80;2.60;;;;;;;2.91;68.25;98910.55;212461;1322;139111;-59
2021/12/20 09:12:37;;;;;;;6.30;2.90;;;;;;;3.00;68.27;98914.45;212046;1330;138705;-60
2021/12/20 09:17:40;;;;;;;4.70;2.70;;;;;;;3.00;68.22;98919.72;212598;1328;138387;-58
2021/12/20 09:22:53;;;;;;;7.30;3.50;;;;;;;3.00;68.10;98924.44;212377;1321;139446;-56
2021/12/20 09:27:58;;;;;;;7.60;3.10;;;;;;;3.01;67.99;98922.31;211949;1324;139539;-58
2021/12/20 09:33:01;;;;;;;4.90;2.70;;;;;;;3.09;68.37;98920.30;212723;1321;139041;-62
2021/12/20 09:38:08;;;;;;;6.70;3.40;;;;;;;3.14;67.98;98919.42;212877;1327;139757;-60
2021/12/20 09:43:14;;;;;;;3.90;2.50;;;;;;;3.18;67.83;98920.34;212362;1328;139397;-62
2021/12/20 09:48:17;;;;;;;;;;;;;;;3.24;67.85;98924.34;212258;1329;138731;-60
2021/12/20 09:53:22;;;;;;;5.10;2.60;;;;;;;3.28;67.85;98920.16;212503;1323;124883;-60
2021/12/20 09:58:27;;;;;;;4.10;2.50;;;;;;;3.29;67.88;98923.44;212248;1328;138745;-58
2021/12/20 10:03:30;;;;;;;6.80;2.70;;;;;;;3.28;67.55;98919.81;212102;1329;138699;-59
2021/12/20 10:08:35;;;;;;;48.00;22.60;;;;;;;3.26;67.57;98923.90;212546;1328;139370;-59
2021/12/20 10:13:39;;;;;;;7.10;2.90;;;;;;;3.35;67.81;98926.94;211993;1328;138659;-60
2021/12/20 10:18:42;;;;;;;4.20;2.50;;;;;;;3.36;67.51;98924.64;212011;1328;139374;-61
2021/12/20 10:23:48;;;;;;;8.40;2.60;;;;;;;3.36;67.38;98927.27;212054;1331;138619;-59
2021/12/20 10:28:53;;;;;;;5.30;2.40;;;;;;;3.31;67.28;98929.70;211869;1325;138348;-59
2021/12/20 10:34:03;;;;;;;5.40;2.70;;;;;;;3.25;67.33;98929.74;212729;1328;138936;-57
2021/12/20 10:39:07;;;;;;;5.30;2.80;;;;;;;3.22;67.55;98930.20;212694;1323;139263;-59
2021/12/20 10:44:20;;;;;;;5.80;2.70;;;;;;;3.21;67.34;98929.17;212374;1325;138471;-59
2021/12/20 10:49:28;;;;;;;5.50;2.60;;;;;;;3.16;67.44;98931.44;212463;1323;139278;-59
2021/12/20 10:54:42;;;;;;;6.00;3.00;;;;;;;3.14;67.46;98930.46;212581;1328;139371;-60
2021/12/20 10:59:49;;;;;;;6.00;2.90;;;;;;;3.17;67.69;98934.21;212609;1329;139215;-61
2021/12/20 11:04:59;;;;;;;5.80;2.50;;;;;;;3.17;67.62;98938.96;212075;1327;140163;-61
2021/12/20 11:10:06;;;;;;;4.60;2.60;;;;;;;3.17;67.69;98933.19;213192;1323;138802;-60
2021/12/20 11:15:16;;;;;;;6.90;2.80;;;;;;;3.19;67.69;98936.27;212187;1328;138503;-59
2021/12/20 11:20:29;;;;;;;6.20;2.80;;;;;;;3.20;67.60;98940.59;212146;1321;139068;-61
2021/12/20 11:25:32;;;;;;;5.80;2.70;;;;;;;3.21;67.65;98940.92;211659;1327;138812;-58
2021/12/20 11:30:39;;;;;;;4.20;2.20;;;;;;;3.19;67.69;98937.30;211666;1326;144378;-62
2021/12/20 11:35:48;;;;;;;5.00;2.50;;;;;;;3.21;67.60;98944.23;212485;1321;138881;-62
2021/12/20 11:41:29;;;;;;;6.60;3.30;;;;;;;3.12;67.39;98937.00;211616;1328;139360;-59
2021/12/20 11:47:14;;;;;;;4.90;3.00;;;;;;;3.00;67.94;98936.19;211937;1329;138611;-61
2021/12/20 11:52:23;;;;;;;7.00;3.40;;;;;;;2.95;67.92;98945.83;212508;1325;139677;-60
2021/12/20 11:57:43;;;;;;;17.30;7.00;;;;;;;2.83;68.46;98948.67;212050;1324;138638;-60
2021/12/20 12:02:49;;;;;;;7.60;4.40;;;;;;;2.78;68.34;98949.68;212859;1323;141695;-61
2021/12/20 12:07:53;;;;;;;7.70;3.60;;;;;;;2.77;68.57;98954.45;212306;1322;138854;-63
2021/12/20 12:13:01;;;;;;;5.60;2.70;;;;;;;2.68;68.39;98950.54;213310;1321;138330;-60
2021/12/20 12:18:04;;;;;;;3.90;2.30;;;;;;;2.66;68.51;98950.25;212426;1328;138607;-59
2021/12/20 12:23:12;;;;;;;8.40;2.60;;;;;;;2.70;68.31;98956.08;212743;1328;138403;-63
2021/12/20 12:28:19;;;;;;;4.40;2.50;;;;;;;2.76;68.10;98951.68;212317;1322;138942;-63
2021/12/20 12:33:25;;;;;;;5.10;2.90;;;;;;;2.87;67.96;98947.11;212017;1329;139199;-59
2021/12/20 12:38:34;;;;;;;5.70;3.10;;;;;;;2.97;67.97;98946.09;212182;1326;138877;-59
2021/12/20 12:43:59;;;;;;;5.30;2.80;;;;;;;2.93;67.64;98945.89;212272;1321;138538;-60
2021/12/20 12:49:31;;;;;;;5.20;2.70;;;;;;;2.83;67.59;98949.34;212428;1322;138747;-60
2021/12/20 12:54:34;;;;;;;5.20;2.80;;;;;;;2.76;67.63;98944.15;212235;1326;138693;-60
2021/12/20 12:59:37;;;;;;;5.50;2.80;;;;;;;2.75;67.81;98950.14;212174;1322;140124;-59
2021/12/20 13:04:47;;;;;;;6.90;3.40;;;;;;;2.68;67.73;98962.10;211823;1323;419463;-60
2021/12/20 13:09:52;;;;;;;6.70;3.20;;;;;;;2.66;67.96;98967.23;212409;1322;138890;-62
2021/12/20 13:15:07;;;;;;;8.60;3.80;;;;;;;2.70;68.02;98976.41;212048;1326;138631;-60
2021/12/20 13:20:23;;;;;;;;;;;;;;;2.73;68.15;98976.66;212535;1322;138686;-60
2021/12/20 13:25:43;;;;;;;7.60;3.50;;;;;;;2.71;67.97;98980.24;212455;1323;125878;-59
2021/12/20 13:30:56;;;;;;;9.40;3.80;;;;;;;2.65;67.96;98993.19;212202;1321;138530;-58
2021/12/20 13:36:11;;;;;;;6.90;3.70;;;;;;;2.55;68.13;98988.05;212271;1326;138363;-59
2021/12/20 13:41:20;;;;;;;7.40;3.70;;;;;;;2.51;68.23;98994.30;212426;1325;139245;-58
2021/12/20 13:46:48;;;;;;;7.10;3.60;;;;;;;2.53;68.47;99005.45;212467;1322;139929;-59
2021/12/20 13:51:53;;;;;;;7.70;3.70;;;;;;;2.47;68.58;99010.20;212115;1330;138644;-64
2021/12/20 13:57:21;;;;;;;10.20;4.10;;;;;;;2.42;68.72;99008.23;212648;1324;138854;-63
2021/12/20 14:02:45;;;;;;;8.10;3.90;;;;;;;2.41;68.56;99004.42;212247;1322;138956;-60
2021/12/20 14:07:52;;;;;;;8.70;4.10;;;;;;;2.46;68.47;99003.59;212265;1326;138573;-59
2021/12/20 14:13:05;;;;;;;6.80;3.40;;;;;;;2.48;68.50;99012.98;212141;1324;139236;-59
2021/12/20 14:18:12;;;;;;;7.50;3.90;;;;;;;2.57;68.40;99013.91;212873;1321;139358;-63
2021/12/20 14:23:29;;;;;;;57.80;28.60;;;;;;;2.67;68.27;99006.10;212908;1322;138975;-59
2021/12/20 14:28:35;;;;;;;9.20;4.10;;;;;;;2.76;67.98;99008.45;212344;1322;139419;-59
2021/12/20 14:33:54;;;;;;;10.00;3.80;;;;;;;2.71;67.54;99006.13;212014;1329;138926;-59
2021/12/20 14:39:07;;;;;;;8.80;4.10;;;;;;;2.69;67.42;99007.80;211970;1328;139080;-60
2021/12/20 14:44:18;;;;;;;8.40;4.10;;;;;;;2.65;67.25;99011.23;212132;1326;138601;-61
2021/12/20 14:49:28;;;;;;;9.10;4.20;;;;;;;2.66;67.24;99015.41;212257;1327;139552;-58
2021/12/20 14:54:39;;;;;;;11.30;4.70;;;;;;;2.66;67.41;99027.33;212161;1322;139226;-58
2021/12/20 14:59:47;;;;;;;7.60;3.90;;;;;;;2.59;67.37;99034.34;212352;1325;138877;-62
2021/12/20 15:04:52;;;;;;;8.20;4.80;;;;;;;2.55;67.61;99031.66;212495;1325;139163;-60
2021/12/20 15:09:56;;;;;;;8.70;4.30;;;;;;;2.48;67.80;99029.79;212010;1325;138857;-58
2021/12/20 15:14:59;;;;;;;8.10;4.70;;;;;;;2.42;67.86;99030.48;212138;1322;139303;-58
2021/12/20 15:20:03;;;;;;;10.30;4.30;;;;;;;2.41;68.08;99031.02;212779;1319;139325;-58
2021/12/20 15:25:06;;;;;;;8.50;4.20;;;;;;;2.48;68.18;99033.80;212296;1325;139299;-59
2021/12/20 15:30:09;;;;;;;8.20;4.70;;;;;;;2.51;68.00;99032.65;212853;1324;138295;-60
2021/12/20 15:35:12;;;;;;;10.90;5.00;;;;;;;2.51;67.91;99032.12;214553;1318;138642;-59
2021/12/20 15:40:16;;;;;;;6.50;4.40;;;;;;;2.54;67.84;99035.54;214753;1321;140354;-59
2021/12/20 15:45:18;;;;;;;9.20;5.00;;;;;;;2.52;67.61;99038.77;214086;1320;138518;-60
2021/12/20 15:50:23;;;;;;;10.30;4.80;;;;;;;2.51;67.56;99043.34;213299;1318;160087;-63
2021/12/20 15:55:31;;;;;;;7.50;4.80;;;;;;;2.50;67.49;99043.55;213964;1321;139208;-60
2021/12/20 16:00:34;;;;;;;9.60;4.70;;;;;;;2.52;67.48;99051.71;213885;1320;139153;-58
2021/12/20 16:05:37;;;;;;;3.70;2.20;;;;;;;2.54;67.37;99081.07;212536;1328;139895;-59
2021/12/20 16:10:41;;;;;;;2.70;1.60;;;;;;;2.56;67.47;99074.20;214187;1321;138010;-58
2021/12/20 16:15:45;;;;;;;94.20;52.60;;;;;;;2.58;67.47;99079.05;212759;1321;138625;-61
2021/12/20 16:20:48;;;;;;;16.10;8.30;;;;;;;2.67;67.93;99094.18;214305;1322;138226;-58
2021/12/20 16:25:52;;;;;;;9.40;2.90;;;;;;;2.71;67.68;99102.46;212950;1321;138890;-58
2021/12/20 16:30:56;;;;;;;10.10;4.30;;;;;;;2.71;67.69;99105.81;212097;1329;139281;-60
2021/12/20 16:35:59;;;;;;;8.50;4.50;;;;;;;2.63;67.34;99109.55;212774;1326;138606;-62
2021/12/20 16:41:02;;;;;;;12.20;6.20;;;;;;;2.52;67.24;99114.56;212488;1325;138683;-58
2021/12/20 16:46:10;;;;;;;10.90;4.50;;;;;;;2.50;67.28;99115.34;212221;1324;139299;-63
2021/12/20 16:51:31;;;;;;;11.60;4.90;;;;;;;2.48;67.32;99112.94;212091;1325;140455;-59
2021/12/20 16:56:43;;;;;;;7.90;4.10;;;;;;;2.54;67.36;99109.95;212362;1326;139090;-59
2021/12/20 17:01:47;;;;;;;12.50;5.10;;;;;;;2.54;67.14;99109.80;212072;1329;138456;-60
2021/12/20 17:06:50;;;;;;;10.20;5.00;;;;;;;2.53;66.89;99112.95;212019;1328;140418;-60
2021/12/20 17:11:53;;;;;;;7.50;4.10;;;;;;;2.56;67.00;99120.05;212199;1324;138483;-58
2021/12/20 17:16:57;;;;;;;9.50;4.80;;;;;;;2.54;66.58;99125.73;211994;1328;138667;-60
2021/12/20 17:22:05;;;;;;;8.70;4.90;;;;;;;2.54;66.51;99121.88;212340;1325;138528;-62
2021/12/20 17:27:08;;;;;;;11.40;4.70;;;;;;;2.51;66.25;99128.95;212891;1321;138280;-60
2021/12/20 17:32:13;;;;;;;8.70;4.80;;;;;;;2.48;66.18;99136.23;212200;1325;140191;-58
2021/12/20 17:37:16;;;;;;;11.10;5.00;;;;;;;2.44;65.98;99144.41;212618;1321;140032;-61
2021/12/20 17:42:20;;;;;;;9.30;4.80;;;;;;;2.45;65.90;99146.64;212893;1325;139623;-62
2021/12/20 17:47:23;;;;;;;4.40;1.90;;;;;;;2.54;66.31;99206.64;212302;1328;138711;-58
2021/12/20 17:52:26;;;;;;;2.40;1.20;;;;;;;2.47;66.30;99214.16;212407;1328;141828;-58
2021/12/20 17:57:29;;;;;;;2.20;1.40;;;;;;;2.28;66.25;99206.28;212172;1327;138882;-60
2021/12/20 18:02:33;;;;;;;2.70;1.30;;;;;;;2.08;66.04;99206.08;212116;1328;138919;-60
2021/12/20 18:07:38;;;;;;;2.50;1.40;;;;;;;1.83;65.87;99216.48;212499;1328;138454;-60
2021/12/20 18:12:43;;;;;;;3.40;2.10;;;;;;;1.67;66.17;99231.20;212536;1325;138210;-60
2021/12/20 18:17:47;;;;;;;19.10;11.30;;;;;;;1.62;66.38;99234.64;212040;1329;138171;-60
2021/12/20 18:22:52;;;;;;;4.00;2.20;;;;;;;1.59;66.41;99234.18;212080;1325;139065;-61
2021/12/20 18:27:55;;;;;;;4.20;2.40;;;;;;;1.53;66.37;99237.81;212162;1325;140127;-60
2021/12/20 18:33:00;;;;;;;4.40;2.10;;;;;;;1.50;66.40;99248.18;212746;1325;139371;-59
2021/12/20 18:38:04;;;;;;;5.20;2.50;;;;;;;1.48;66.34;99258.02;212542;1321;138126;-60
2021/12/20 18:43:07;;;;;;;4.40;2.40;;;;;;;1.50;66.38;99266.92;212027;1330;138456;-60
2021/12/20 18:48:11;;;;;;;6.20;2.50;;;;;;;1.49;66.44;99277.58;212573;1324;138698;-59
2021/12/20 18:53:15;;;;;;;5.60;2.50;;;;;;;1.49;66.05;99293.51;212751;1322;139105;-60
2021/12/20 18:58:19;;;;;;;5.00;2.50;;;;;;;1.47;65.75;99303.52;212703;1322;139819;-58
2021/12/20 19:03:24;;;;;;;4.40;2.20;;;;;;;1.50;65.79;99303.80;213010;1321;138591;-59
2021/12/20 19:08:47;;;;;;;5.90;3.00;;;;;;;1.48;65.40;99309.77;212529;1322;138960;-58
2021/12/20 19:14:07;;;;;;;5.90;2.80;;;;;;;1.47;65.21;99315.75;212038;1319;139373;-59
2021/12/20 19:19:12;;;;;;;5.80;2.70;;;;;;;1.44;65.01;99324.70;212349;1322;139032;-61
2021/12/20 19:24:15;;;;;;;7.60;2.60;;;;;;;1.36;64.54;99334.15;212412;1322;139375;-59
2021/12/20 19:29:18;;;;;;;6.20;2.80;;;;;;;1.28;64.25;99339.73;212411;1325;138997;-58
2021/12/20 19:34:24;;;;;;;5.90;2.50;;;;;;;1.20;64.18;99345.11;212780;1322;137869;-62
2021/12/20 19:39:33;;;;;;;6.10;2.90;;;;;;;1.16;63.80;99356.55;212121;1325;139143;-58
2021/12/20 19:44:38;;;;;;;27.50;13.80;;;;;;;1.18;64.10;99365.24;212605;1328;138474;-59
2021/12/20 19:49:42;;;;;;;6.60;3.40;;;;;;;1.25;63.89;99372.11;212443;1325;138324;-62
2021/12/20 19:55:06;;;;;;;9.40;5.00;;;;;;;1.22;63.56;99388.59;212897;1322;141233;-62
2021/12/20 20:00:10;;;;;;;8.30;4.50;;;;;;;1.23;63.94;99393.11;212504;1324;138930;-62
2021/12/20 20:05:13;;;;;;;5.40;3.10;;;;;;;1.28;63.61;99400.72;212345;1322;138386;-62
2021/12/20 20:10:17;;;;;;;6.20;2.90;;;;;;;1.22;63.08;99406.77;212291;1322;138945;-63
2021/12/20 20:15:21;;;;;;;9.10;4.10;;;;;;;1.11;62.68;99412.55;212502;1324;138377;-61
2021/12/20 20:20:25;;;;;;;7.00;3.30;;;;;;;1.05;62.78;99414.59;211863;1324;138517;-60
2021/12/20 20:25:29;;;;;;;7.40;3.40;;;;;;;1.02;62.75;99414.64;212275;1325;138690;-62
2021/12/20 20:30:34;;;;;;;7.70;3.40;;;;;;;1.01;62.91;99424.63;212203;1327;141782;-60
2021/12/20 20:35:37;;;;;;;14.30;7.20;;;;;;;1.04;63.29;99434.16;212258;1325;138155;-63
2021/12/20 20:40:42;;;;;;;7.80;4.20;;;;;;;1.15;63.18;99444.80;212142;1327;139075;-62
2021/12/20 20:45:45;;;;;;;172.30;81.50;;;;;;;1.12;62.87;99446.08;212527;1322;138996;-62
2021/12/20 20:50:49;;;;;;;20.00;9.00;;;;;;;1.16;62.95;99453.69;212019;1328;139296;-61
2021/12/20 20:55:52;;;;;;;8.40;4.70;;;;;;;1.10;62.53;99459.58;212801;1321;138711;-62
2021/12/20 21:06:18;;;;;;;184.90;110.30;;;;;;;0.91;62.44;99468.27;212140;1325;139127;-57
2021/12/20 21:11:22;;;;;;;14.30;6.20;;;;;;;0.97;62.75;99471.67;212472;1322;140412;-63
2021/12/20 21:16:25;;;;;;;11.20;4.40;;;;;;;0.94;62.36;99472.77;212346;1327;138571;-61
2021/12/20 21:21:28;;;;;;;10.10;4.70;;;;;;;0.88;62.28;99462.55;212185;1324;139947;-60
2021/12/20 21:26:32;;;;;;;10.10;4.20;;;;;;;0.81;62.17;99460.58;212573;1321;138861;-62
2021/12/20 21:31:43;;;;;;;7.80;4.20;;;;;;;0.77;62.10;99477.05;212103;1324;139194;-59
2021/12/20 21:36:48;;;;;;;10.20;4.00;;;;;;;0.76;61.91;99483.02;212434;1324;139341;-58
2021/12/20 21:41:53;;;;;;;8.40;4.40;;;;;;;0.76;61.87;99488.60;212089;1327;139633;-61
2021/12/20 21:46:57;;;;;;;10.30;3.80;;;;;;;0.73;61.62;99486.89;212906;1326;139186;-61
2021/12/20 21:52:00;;;;;;;7.40;3.90;;;;;;;0.69;61.52;99488.35;212051;1329;138564;-61
2021/12/20 21:57:03;;;;;;;12.30;5.30;;;;;;;0.61;61.35;99488.47;213036;1320;138984;-59
2021/12/20 22:02:07;;;;;;;11.10;4.80;;;;;;;0.53;61.34;99486.14;212711;1325;139144;-59
2021/12/20 22:07:10;;;;;;;13.90;6.20;;;;;;;0.48;61.32;99490.23;212984;1322;138687;-60
2021/12/20 22:12:13;;;;;;;10.00;5.20;;;;;;;0.46;61.26;99497.23;212539;1326;140008;-60
2021/12/20 22:17:16;;;;;;;13.00;5.60;;;;;;;0.43;61.25;99500.77;212837;1325;139113;-59
2021/12/20 22:22:23;;;;;;;17.90;6.40;;;;;;;0.36;61.40;99505.93;212585;1327;138771;-59
2021/12/20 22:27:26;;;;;;;15.80;7.00;;;;;;;0.31;61.48;99507.57;212275;1325;139142;-60
2021/12/20 22:32:29;;;;;;;17.30;6.70;;;;;;;0.23;61.37;99510.27;212786;1322;138868;-59
2021/12/20 22:37:33;;;;;;;16.00;6.30;;;;;;;0.17;61.61;99507.73;212492;1325;138963;-63
2021/12/20 22:42:36;;;;;;;11.90;6.00;;;;;;;0.12;61.56;99502.38;212074;1324;138381;-59
2021/12/20 22:47:39;;;;;;;16.00;6.20;;;;;;;0.05;61.60;99507.54;212449;1324;138967;-63
2021/12/20 22:52:42;;;;;;;14.10;5.70;;;;;;;0.02;61.87;99502.88;212229;1322;138388;-62
2021/12/20 22:57:45;;;;;;;11.10;5.80;;;;;;;-0.00;61.87;99511.60;212569;1322;138878;-61
2021/12/20 23:02:48;;;;;;;12.80;5.80;;;;;;;-0.01;62.02;99515.29;212794;1325;138991;-60
2021/12/20 23:07:52;;;;;;;10.90;5.00;;;;;;;-0.03;62.01;99512.00;213362;1322;139460;-59
2021/12/20 23:17:58;;;;;;;11.90;5.30;;;;;;;0.01;62.16;99506.36;213137;1321;138918;-61
2021/12/20 23:23:04;;;;;;;11.40;5.60;;;;;;;0.02;62.19;99502.52;213635;1325;138752;-58
2021/12/20 23:28:12;;;;;;;14.20;5.90;;;;;;;0.07;62.19;99499.31;213556;1322;141173;-62
2021/12/20 23:33:16;;;;;;;14.10;6.40;;;;;;;0.10;62.31;99506.08;212719;1323;139320;-62
2021/12/20 23:38:26;;;;;;;16.50;6.90;;;;;;;0.15;62.51;99511.60;213364;1325;138655;-61
2021/12/20 23:43:33;;;;;;;18.60;7.90;;;;;;;0.20;62.51;99520.42;213307;1322;138549;-60
2021/12/20 23:48:36;;;;;;;18.10;7.70;;;;;;;0.18;62.58;99531.09;212993;1321;139513;-60
2021/12/20 23:53:39;;;;;;;18.10;8.40;;;;;;;0.14;62.86;99534.29;213195;1315;138948;-60